Time;durP1;ratioP1;P1;durP2;ratioP2;P2;SDS_P1;SDS_P2;PMS_P1;PMS_P2;Temp;Humidity;BMP_temperature;BMP_pressure;BME280_temperature;BME280_humidity;BME280_pressure;Samples;Min_cycle;Max_cycle;Signal;HPM_P1;HPM_P2
2023/10/05 00:03:38;;;;;;;1.15;1.05;;;;;;;11.12;nan;100552.25;4919870;29;20458;-77
2023/10/05 00:06:16;;;;;;;1.35;1.00;;;;;;;11.15;nan;100541.59;4923014;28;20185;-78
2023/10/05 00:08:48;;;;;;;2.40;1.42;;;;;;;11.19;nan;100547.56;4917087;29;20217;-78
2023/10/05 00:11:23;;;;;;;4.07;2.00;;;;;;;11.25;nan;100549.84;4920733;29;20206;-78
2023/10/05 00:13:53;;;;;;;2.50;1.60;;;;;;;11.27;nan;100546.22;4917617;28;20460;-77
2023/10/05 00:16:21;;;;;;;2.90;1.65;;;;;;;11.26;nan;100552.41;4919225;29;20202;-77
2023/10/05 00:18:49;;;;;;;2.38;1.60;;;;;;;11.22;nan;100555.28;4933463;28;20379;-78
2023/10/05 00:21:18;;;;;;;1.83;1.73;;;;;;;11.13;nan;100548.72;4917587;28;20210;-77
2023/10/05 00:23:44;;;;;;;2.70;1.80;;;;;;;11.04;nan;100549.16;4922078;29;20208;-78
2023/10/05 00:26:10;;;;;;;2.53;1.90;;;;;;;11.00;nan;100542.38;4919152;28;20214;-77
2023/10/05 00:28:35;;;;;;;3.50;2.03;;;;;;;10.94;nan;100534.81;4924503;28;20225;-78
2023/10/05 00:31:03;;;;;;;2.40;1.50;;;;;;;10.97;nan;100538.13;4923505;29;20218;-78
2023/10/05 00:33:28;;;;;;;3.25;2.30;;;;;;;11.01;nan;100529.13;4921982;29;20292;-78
2023/10/05 00:35:54;;;;;;;3.63;1.83;;;;;;;11.08;nan;100524.44;4921290;28;20711;-78
2023/10/05 00:38:20;;;;;;;2.60;2.13;;;;;;;11.13;nan;100524.22;4921374;28;20198;-77
2023/10/05 00:41:02;;;;;;;2.60;2.00;;;;;;;11.13;nan;100526.84;4920267;29;20695;-77
2023/10/05 00:43:28;;;;;;;1.50;1.30;;;;;;;11.13;nan;100524.22;4919810;29;20232;-78
2023/10/05 00:45:57;;;;;;;2.30;1.80;;;;;;;11.16;nan;100526.69;4919251;28;20757;-77
2023/10/05 00:48:34;;;;;;;2.30;1.80;;;;;;;11.15;nan;100520.56;4917995;29;20221;-78
2023/10/05 00:51:08;;;;;;;4.15;1.60;;;;;;;11.16;nan;100516.16;4917872;29;20288;-78
2023/10/05 00:53:35;;;;;;;1.10;1.00;;;;;;;11.08;nan;100520.00;4918887;29;20205;-77
2023/10/05 00:56:12;;;;;;;1.23;1.10;;;;;;;10.98;nan;100518.78;4923774;29;20221;-77
2023/10/05 00:58:47;;;;;;;1.10;1.00;;;;;;;10.87;nan;100525.50;4932099;28;20300;-78
2023/10/05 01:01:15;;;;;;;1.50;1.40;;;;;;;10.77;nan;100515.44;4920086;29;20213;-77
2023/10/05 01:06:39;;;;;;;2.05;0.95;;;;;;;10.66;nan;100507.25;4918213;28;20197;-77
2023/10/05 01:09:56;;;;;;;1.50;1.40;;;;;;;10.63;nan;100496.91;4935572;28;20232;-77
2023/10/05 01:12:02;;;;;;;2.08;1.20;;;;;;;10.66;nan;100490.63;4919606;29;20600;-78
2023/10/05 01:14:53;;;;;;;2.30;1.35;;;;;;;10.73;nan;100492.03;4914314;29;20199;-77
2023/10/05 01:17:20;;;;;;;1.85;1.23;;;;;;;10.81;nan;100479.38;4917491;29;20242;-77
2023/10/05 01:19:54;;;;;;;2.63;1.80;;;;;;;10.87;nan;100478.22;4919933;29;20210;-78
2023/10/05 01:22:22;;;;;;;5.72;1.77;;;;;;;10.93;nan;100477.88;4919991;29;20201;-78
2023/10/05 01:24:51;;;;;;;2.05;1.80;;;;;;;10.99;nan;100482.81;4931024;28;20277;-78
2023/10/05 01:27:21;;;;;;;2.92;1.88;;;;;;;11.03;nan;100473.88;4916937;29;20206;-77
2023/10/05 01:29:46;;;;;;;3.08;1.80;;;;;;;11.06;nan;100466.66;4917625;29;20206;-78
2023/10/05 01:32:14;;;;;;;3.07;1.83;;;;;;;11.08;nan;100471.84;4917852;29;20563;-77
2023/10/05 01:34:39;;;;;;;3.33;2.60;;;;;;;11.08;nan;100463.97;4917681;29;20612;-78
2023/10/05 01:37:05;;;;;;;2.63;1.50;;;;;;;11.08;nan;100456.91;4918811;29;20738;-78
2023/10/05 01:39:35;;;;;;;1.40;1.10;;;;;;;11.05;nan;100457.06;4918930;29;20244;-78
2023/10/05 01:42:05;;;;;;;2.92;1.15;;;;;;;10.93;nan;100456.84;4918844;28;20264;-78
2023/10/05 01:44:30;;;;;;;2.58;0.90;;;;;;;10.77;nan;100465.50;4914934;29;20228;-77
2023/10/05 01:46:58;;;;;;;1.83;1.13;;;;;;;10.63;nan;100460.97;4913914;29;20594;-78
2023/10/05 01:49:25;;;;;;;1.80;0.90;;;;;;;10.53;nan;100459.75;4931470;28;20224;-78
2023/10/05 01:51:52;;;;;;;3.50;1.10;;;;;;;10.45;nan;100458.41;4920505;29;20292;-77
2023/10/05 01:54:17;;;;;;;1.13;1.02;;;;;;;10.38;nan;100453.47;4922076;29;20213;-78
2023/10/05 01:56:47;;;;;;;2.53;1.43;;;;;;;10.36;nan;100452.69;4936863;28;20194;-78
2023/10/05 01:59:13;;;;;;;3.25;1.75;;;;;;;10.34;nan;100461.56;4925554;29;20361;-77
2023/10/05 02:01:40;;;;;;;1.20;1.10;;;;;;;10.29;nan;100463.56;4922114;28;20286;-77
2023/10/05 02:04:09;;;;;;;1.88;1.48;;;;;;;10.25;nan;100459.34;4921751;29;20216;-77
2023/10/05 02:06:45;;;;;;;3.88;1.15;;;;;;;10.20;nan;100454.31;4925352;29;20228;-77
2023/10/05 02:09:12;;;;;;;2.03;1.40;;;;;;;10.16;nan;100445.75;4941875;28;20304;-77
2023/10/05 02:11:40;;;;;;;1.27;1.10;;;;;;;10.20;nan;100446.44;4941543;28;20201;-78
2023/10/05 02:14:11;;;;;;;2.45;1.58;;;;;;;10.26;nan;100450.53;4942938;28;20551;-78
2023/10/05 02:16:37;;;;;;;2.05;1.55;;;;;;;10.27;nan;100447.00;4925958;29;20229;-77
2023/10/05 02:19:04;;;;;;;2.53;1.40;;;;;;;10.29;nan;100451.28;4930276;29;20205;-78
2023/10/05 02:21:35;;;;;;;1.50;1.33;;;;;;;10.33;nan;100444.94;4926776;29;20221;-78
2023/10/05 02:24:10;;;;;;;2.05;1.85;;;;;;;10.40;nan;100445.50;4942166;28;20233;-77
2023/10/05 02:26:40;;;;;;;1.77;1.20;;;;;;;10.46;nan;100457.50;4926276;29;20595;-78
2023/10/05 02:29:13;;;;;;;4.40;2.00;;;;;;;10.52;nan;100450.16;4928524;29;20575;-77
2023/10/05 02:31:55;;;;;;;2.70;1.52;;;;;;;10.58;nan;100441.09;4933070;29;20280;-80
2023/10/05 02:34:20;;;;;;;2.45;1.70;;;;;;;10.63;nan;100452.22;4932245;29;20208;-79
2023/10/05 02:36:46;;;;;;;1.90;1.73;;;;;;;10.67;nan;100440.66;4946776;28;20198;-79
2023/10/05 02:39:12;;;;;;;2.77;2.10;;;;;;;10.68;nan;100433.63;4930623;29;20528;-79
2023/10/05 02:41:38;;;;;;;2.72;1.45;;;;;;;10.69;nan;100436.16;4930425;28;20245;-79
2023/10/05 02:44:17;;;;;;;2.00;1.60;;;;;;;10.69;nan;100432.69;4926953;29;20410;-80
2023/10/05 02:46:47;;;;;;;3.15;1.50;;;;;;;10.71;nan;100431.66;4926389;29;20205;-79
2023/10/05 02:49:15;;;;;;;4.40;1.60;;;;;;;10.67;nan;100438.03;4931286;28;20647;-79
2023/10/05 02:51:43;;;;;;;1.58;1.45;;;;;;;10.60;nan;100442.72;4928184;29;20190;-80
2023/10/05 02:54:10;;;;;;;1.42;1.30;;;;;;;10.53;nan;100436.09;4930326;29;20221;-80
2023/10/05 02:56:36;;;;;;;1.90;0.90;;;;;;;10.48;nan;100437.25;4930838;29;20268;-80
2023/10/05 02:59:11;;;;;;;1.58;1.05;;;;;;;10.37;nan;100443.91;4930488;29;20428;-79
2023/10/05 03:01:39;;;;;;;2.45;1.30;;;;;;;10.28;nan;100444.31;4943411;28;20243;-80
2023/10/05 03:04:31;;;;;;;4.63;1.67;;;;;;;10.22;nan;100454.25;4950860;28;20460;-80
2023/10/05 03:06:54;;;;;;;2.38;1.48;;;;;;;10.16;nan;100455.41;4948228;28;20201;-79
2023/10/05 03:09:21;;;;;;;4.70;2.37;;;;;;;10.12;nan;100449.44;4927724;29;20281;-79
2023/10/05 03:11:51;;;;;;;2.70;1.80;;;;;;;10.11;nan;100447.75;4924963;29;20205;-77
2023/10/05 03:14:17;;;;;;;4.18;1.80;;;;;;;10.12;nan;100449.44;4937976;28;20202;-77
2023/10/05 03:16:44;;;;;;;3.03;1.90;;;;;;;10.16;nan;100439.66;4934775;28;20194;-80
2023/10/05 03:19:15;;;;;;;3.83;2.10;;;;;;;10.20;nan;100433.31;4921885;29;20198;-76
2023/10/05 03:21:42;;;;;;;4.78;2.30;;;;;;;10.22;nan;100431.47;4922319;29;21303;-78
2023/10/05 03:24:13;;;;;;;1.77;1.58;;;;;;;10.28;nan;100432.97;4938112;28;20923;-76
2023/10/05 03:26:40;;;;;;;2.28;2.00;;;;;;;10.35;nan;100432.59;4936460;28;20197;-78
2023/10/05 03:29:07;;;;;;;2.58;1.85;;;;;;;10.43;nan;100441.88;4925343;28;20214;-77
2023/10/05 03:31:37;;;;;;;2.88;2.10;;;;;;;10.47;nan;100440.78;4937587;28;20225;-77
2023/10/05 03:34:07;;;;;;;4.22;2.13;;;;;;;10.49;nan;100433.69;4918148;29;20330;-77
2023/10/05 03:36:33;;;;;;;2.42;2.22;;;;;;;10.47;nan;100438.16;4936610;28;20280;-80
2023/10/05 03:39:03;;;;;;;2.20;2.00;;;;;;;10.47;nan;100443.41;4925172;29;20198;-77
2023/10/05 03:41:29;;;;;;;2.90;2.08;;;;;;;10.51;nan;100444.97;4936083;28;20206;-78
2023/10/05 03:44:02;;;;;;;3.20;2.30;;;;;;;10.54;nan;100453.56;4921377;29;20201;-80
2023/10/05 03:46:28;;;;;;;4.00;2.53;;;;;;;10.53;nan;100448.34;4917563;29;20451;-79
2023/10/05 03:49:02;;;;;;;2.57;1.80;;;;;;;10.53;nan;100449.25;4918746;29;20214;-77
2023/10/05 03:51:29;;;;;;;4.70;2.70;;;;;;;10.52;nan;100452.78;4942078;28;20639;-79
2023/10/05 03:53:55;;;;;;;6.15;2.58;;;;;;;10.55;nan;100465.75;4938020;28;20289;-80
2023/10/05 03:56:23;;;;;;;3.92;2.30;;;;;;;10.59;nan;100469.94;4936741;28;20616;-77
2023/10/05 03:58:52;;;;;;;3.33;2.50;;;;;;;10.65;nan;100476.66;4929614;28;20218;-77
2023/10/05 04:01:21;;;;;;;2.90;2.58;;;;;;;10.65;nan;100473.19;4941404;28;20510;-78
2023/10/05 04:03:48;;;;;;;3.35;2.58;;;;;;;10.68;nan;100476.50;4926275;29;20190;-77
2023/10/05 04:06:17;;;;;;;2.85;2.15;;;;;;;10.72;nan;100472.81;4925120;28;20186;-77
2023/10/05 04:08:59;;;;;;;3.83;2.50;;;;;;;10.75;nan;100475.28;4921001;29;20793;-79
2023/10/05 04:11:27;;;;;;;2.92;2.17;;;;;;;10.77;nan;100470.78;4926837;28;20210;-77
2023/10/05 04:13:54;;;;;;;4.15;2.55;;;;;;;10.78;nan;100479.53;4926262;29;20189;-78
2023/10/05 04:16:33;;;;;;;3.63;2.30;;;;;;;10.81;nan;100474.13;4925520;29;20702;-77
2023/10/05 04:19:04;;;;;;;7.13;2.45;;;;;;;10.78;nan;100476.91;4920641;29;20228;-77
2023/10/05 04:21:29;;;;;;;3.25;2.20;;;;;;;10.76;nan;100482.22;4922800;29;20248;-77
2023/10/05 04:23:58;;;;;;;4.70;3.40;;;;;;;10.76;nan;100481.38;4922562;28;20210;-77
2023/10/05 04:26:32;;;;;;;1.55;1.45;;;;;;;10.72;nan;100479.81;4923025;28;20212;-77
2023/10/05 04:29:03;;;;;;;2.50;2.15;;;;;;;10.70;nan;100490.41;4924705;28;20232;-77
2023/10/05 04:31:29;;;;;;;2.95;2.00;;;;;;;10.69;nan;100486.06;4940492;28;20226;-78
2023/10/05 04:33:56;;;;;;;2.67;1.97;;;;;;;10.70;nan;100493.06;4921678;28;20178;-77
2023/10/05 04:36:25;;;;;;;2.45;2.25;;;;;;;10.72;nan;100492.94;4923443;28;20202;-77
2023/10/05 04:38:54;;;;;;;3.55;2.35;;;;;;;10.70;nan;100495.69;4922684;28;20535;-77
2023/10/05 04:41:31;;;;;;;7.20;2.85;;;;;;;10.65;nan;100500.31;4924834;28;20316;-79
2023/10/05 04:43:58;;;;;;;3.42;2.72;;;;;;;10.64;nan;100482.84;4923346;28;20190;-77
2023/10/05 04:46:24;;;;;;;5.18;2.50;;;;;;;10.60;nan;100476.88;4922266;29;20213;-77
2023/10/05 04:48:55;;;;;;;5.25;2.88;;;;;;;10.56;nan;100474.50;4924629;28;20261;-76
2023/10/05 04:51:32;;;;;;;5.20;3.13;;;;;;;10.54;nan;100484.22;4924662;28;20210;-79
2023/10/05 04:53:59;;;;;;;2.97;2.15;;;;;;;10.55;nan;100481.50;4924034;29;20686;-79
2023/10/05 04:56:39;;;;;;;2.17;1.95;;;;;;;10.58;nan;100472.63;4923269;29;20209;-78
2023/10/05 05:02:12;;;;;;;2.95;2.00;;;;;;;10.66;nan;100473.09;4921924;29;20428;-79
2023/10/05 05:07:08;;;;;;;2.63;1.70;;;;;;;10.66;nan;100482.75;4921032;29;20722;-79
2023/10/05 05:09:38;;;;;;;4.18;2.15;;;;;;;10.59;nan;100484.84;4930714;28;20213;-79
2023/10/05 05:12:08;;;;;;;1.52;1.42;;;;;;;10.52;nan;100472.94;4929180;28;20210;-79
2023/10/05 05:14:35;;;;;;;1.50;1.40;;;;;;;10.44;nan;100481.19;4931458;28;20194;-79
2023/10/05 05:17:02;;;;;;;1.67;1.58;;;;;;;10.37;nan;100479.81;4929029;29;20209;-77
2023/10/05 05:19:30;;;;;;;1.58;1.38;;;;;;;10.28;nan;100475.84;4926963;28;20225;-78
2023/10/05 05:22:05;;;;;;;0.98;0.95;;;;;;;10.24;nan;100468.16;4922434;29;20306;-78
2023/10/05 05:24:34;;;;;;;1.95;1.48;;;;;;;10.18;nan;100471.94;4920056;28;20205;-78
2023/10/05 05:29:40;;;;;;;2.38;1.80;;;;;;;10.13;nan;100468.69;4919101;29;20218;-78
2023/10/05 05:32:19;;;;;;;2.60;1.50;;;;;;;10.14;nan;100465.97;4920642;28;20209;-79
2023/10/05 05:34:44;;;;;;;2.75;1.80;;;;;;;10.18;nan;100466.69;4940405;28;20376;-79
2023/10/05 05:37:14;;;;;;;4.60;2.50;;;;;;;10.24;nan;100462.91;4929332;28;20853;-79
2023/10/05 05:39:42;;;;;;;3.20;2.60;;;;;;;10.26;nan;100461.91;4925960;29;20603;-79
2023/10/05 05:42:15;;;;;;;7.72;2.40;;;;;;;10.27;nan;100454.88;4931181;29;20207;-79
2023/10/05 05:44:41;;;;;;;2.88;2.00;;;;;;;10.27;nan;100454.88;4926376;28;20213;-79
2023/10/05 05:47:11;;;;;;;3.22;2.05;;;;;;;10.28;nan;100464.47;4921850;29;20265;-79
2023/10/05 05:49:45;;;;;;;2.42;2.05;;;;;;;10.28;nan;100456.59;4920841;28;20220;-79
2023/10/05 05:52:12;;;;;;;3.90;2.25;;;;;;;10.29;nan;100460.94;4920454;29;20208;-79
2023/10/05 05:54:38;;;;;;;3.17;2.83;;;;;;;10.31;nan;100464.34;4923686;28;20206;-79
2023/10/05 05:57:07;;;;;;;2.75;2.22;;;;;;;10.34;nan;100479.94;4922316;29;20209;-79
2023/10/05 05:59:38;;;;;;;2.08;1.92;;;;;;;10.33;nan;100484.34;4924482;28;20207;-79
2023/10/05 06:02:07;;;;;;;4.45;1.90;;;;;;;10.32;nan;100485.28;4920798;28;20223;-79
2023/10/05 06:04:33;;;;;;;3.35;2.00;;;;;;;10.33;nan;100468.59;4932074;29;20718;-79
2023/10/05 06:07:00;;;;;;;5.05;3.10;;;;;;;10.40;nan;100474.41;4926669;29;20449;-79
2023/10/05 06:09:27;;;;;;;3.50;2.38;;;;;;;10.45;nan;100482.91;4932945;29;20308;-79
2023/10/05 06:11:53;;;;;;;2.45;2.00;;;;;;;10.49;nan;100483.59;4930531;29;20774;-79
2023/10/05 06:14:18;;;;;;;7.93;2.38;;;;;;;10.49;nan;100494.97;4932509;28;20208;-79
2023/10/05 06:16:44;;;;;;;3.80;2.50;;;;;;;10.52;nan;100496.59;4926340;28;20202;-79
2023/10/05 06:19:14;;;;;;;3.87;2.10;;;;;;;10.55;nan;100488.53;4927207;28;20257;-80
2023/10/05 06:21:39;;;;;;;8.18;2.80;;;;;;;10.60;nan;100484.75;4943372;28;20312;-79
2023/10/05 06:24:05;;;;;;;7.10;3.10;;;;;;;10.69;nan;100496.59;4931402;28;20710;-79
2023/10/05 06:26:31;;;;;;;3.58;2.53;;;;;;;10.77;nan;100494.41;4921461;29;20209;-79
2023/10/05 06:28:56;;;;;;;3.17;2.57;;;;;;;10.88;nan;100498.28;4920827;28;20222;-80
2023/10/05 06:31:22;;;;;;;6.37;3.43;;;;;;;10.96;nan;100504.00;4922320;28;20305;-79
2023/10/05 06:33:48;;;;;;;3.53;2.88;;;;;;;11.06;nan;100502.63;4919975;29;20273;-79
2023/10/05 06:36:14;;;;;;;6.00;3.03;;;;;;;11.15;nan;100494.28;4916469;29;20607;-79
2023/10/05 06:38:40;;;;;;;8.57;2.93;;;;;;;11.25;nan;100489.38;4917583;28;20198;-80
2023/10/05 06:41:05;;;;;;;2.60;2.40;;;;;;;11.34;nan;100488.03;4922676;28;20304;-79
2023/10/05 06:43:35;;;;;;;4.30;2.87;;;;;;;11.45;nan;100494.44;4918356;29;20214;-79
2023/10/05 06:46:14;;;;;;;5.47;3.25;;;;;;;11.57;nan;100489.44;4918418;29;20415;-79
2023/10/05 06:48:40;;;;;;;7.88;3.05;;;;;;;11.69;nan;100487.03;4918312;29;20217;-80
2023/10/05 06:51:07;;;;;;;3.10;2.70;;;;;;;11.79;nan;100491.75;4921455;28;20245;-80
2023/10/05 06:53:32;;;;;;;6.18;3.10;;;;;;;11.87;nan;100494.88;4919875;29;20878;-79
2023/10/05 06:55:57;;;;;;;6.37;2.37;;;;;;;11.92;nan;100490.19;4917189;28;20443;-79
2023/10/05 06:58:23;;;;;;;5.50;3.20;;;;;;;11.95;nan;100495.28;4918220;29;20304;-79
2023/10/05 07:00:48;;;;;;;2.83;1.93;;;;;;;11.99;nan;100496.84;4918511;28;20733;-79
2023/10/05 07:03:13;;;;;;;3.83;2.60;;;;;;;12.02;nan;100504.56;4920946;28;20208;-79
2023/10/05 07:05:39;;;;;;;5.90;3.97;;;;;;;12.10;nan;100502.34;4920478;29;20495;-79
2023/10/05 07:08:07;;;;;;;2.73;2.40;;;;;;;12.19;nan;100498.34;4919988;28;20229;-79
2023/10/05 07:10:33;;;;;;;2.97;2.53;;;;;;;12.26;nan;100497.06;4918678;29;20461;-78
2023/10/05 07:12:58;;;;;;;4.20;3.00;;;;;;;12.34;nan;100497.50;4919280;28;20620;-80
2023/10/05 07:15:23;;;;;;;4.87;3.70;;;;;;;12.41;nan;100497.97;4916004;28;20694;-78
2023/10/05 07:30:59;;;;;;;3.03;2.30;;;;;;;12.83;70.99;100515.75;5004131;27;20602;-77
2023/10/05 07:33:26;;;;;;;5.68;3.20;;;;;;;12.88;70.75;100526.03;5019399;28;20194;-76
2023/10/05 07:35:53;;;;;;;4.90;2.63;;;;;;;12.95;70.55;100527.34;5058374;23;20735;-76
2023/10/05 07:38:19;;;;;;;4.40;2.95;;;;;;;13.04;69.99;100518.91;4979467;28;20203;-76
2023/10/05 07:40:44;;;;;;;3.07;2.73;;;;;;;13.14;69.93;100526.25;4988581;28;20195;-77
2023/10/05 07:43:10;;;;;;;4.37;3.13;;;;;;;13.24;69.48;100525.63;4988711;28;21086;-76
2023/10/05 07:45:37;;;;;;;3.23;2.23;;;;;;;13.38;69.11;100526.63;4975528;28;20208;-77
2023/10/05 07:48:04;;;;;;;3.47;3.00;;;;;;;13.43;68.98;100524.53;4970238;28;20565;-77
2023/10/05 07:50:31;;;;;;;5.53;3.40;;;;;;;13.45;69.00;100546.44;4967926;28;20205;-77
2023/10/05 07:52:58;;;;;;;3.35;2.50;;;;;;;13.48;68.91;100544.44;4964260;28;20462;-77
2023/10/05 07:55:24;;;;;;;4.68;2.45;;;;;;;13.50;68.82;100539.06;4967642;28;20768;-77
2023/10/05 07:57:50;;;;;;;3.50;2.47;;;;;;;13.57;68.88;100544.81;4956156;28;20533;-76
2023/10/05 08:00:16;;;;;;;5.07;3.20;;;;;;;13.62;68.80;100550.66;4963733;28;20334;-77
2023/10/05 08:02:41;;;;;;;5.10;2.90;;;;;;;13.68;68.66;100555.56;4965017;28;20283;-77
2023/10/05 08:05:09;;;;;;;3.33;2.60;;;;;;;13.78;68.43;100564.63;4980534;28;20247;-78
2023/10/05 08:07:35;;;;;;;6.25;3.55;;;;;;;13.93;68.11;100562.81;4964563;28;20224;-77
2023/10/05 08:10:01;;;;;;;4.60;3.67;;;;;;;14.10;67.70;100559.97;4966341;28;20553;-78
2023/10/05 08:12:29;;;;;;;6.20;4.30;;;;;;;14.36;67.20;100557.44;4965479;28;20474;-78
2023/10/05 08:14:54;;;;;;;4.25;3.85;;;;;;;14.57;66.50;100556.09;4965400;28;20554;-78
2023/10/05 08:17:20;;;;;;;4.47;3.23;;;;;;;14.74;65.93;100540.91;4965781;28;20540;-78
2023/10/05 08:19:46;;;;;;;7.18;5.53;;;;;;;14.89;65.45;100547.00;4961143;28;20736;-78
2023/10/05 08:22:11;;;;;;;5.40;3.80;;;;;;;15.05;64.95;100555.59;4964364;28;20200;-78
2023/10/05 08:24:37;;;;;;;6.10;3.50;;;;;;;15.16;64.52;100568.97;4962913;28;20219;-78
2023/10/05 08:27:03;;;;;;;4.90;4.40;;;;;;;15.19;64.29;100568.75;4962388;28;20200;-77
2023/10/05 08:29:28;;;;;;;6.13;4.13;;;;;;;15.25;64.04;100578.91;4966593;28;20999;-78
2023/10/05 08:31:54;;;;;;;5.83;3.90;;;;;;;15.31;64.03;100582.97;4953632;28;20196;-78
2023/10/05 08:34:22;;;;;;;8.90;4.63;;;;;;;15.34;63.92;100579.25;4953126;28;20192;-77
2023/10/05 08:36:54;;;;;;;6.32;3.67;;;;;;;15.39;64.01;100579.78;4956053;28;20216;-78
2023/10/05 08:39:25;;;;;;;5.93;4.00;;;;;;;15.45;64.02;100580.22;4950818;28;20573;-78
2023/10/05 08:41:55;;;;;;;4.90;3.60;;;;;;;15.54;63.88;100585.84;4957005;28;20254;-78
2023/10/05 08:44:27;;;;;;;6.50;4.43;;;;;;;15.56;63.94;100589.25;4941832;28;20237;-78
2023/10/05 08:46:55;;;;;;;8.30;5.57;;;;;;;15.55;63.69;100590.16;4951230;28;20207;-78
2023/10/05 08:49:23;;;;;;;5.47;3.85;;;;;;;15.54;63.73;100589.34;4952274;28;20222;-78
2023/10/05 08:51:49;;;;;;;5.20;4.65;;;;;;;15.60;63.66;100588.91;4949321;28;20200;-78
2023/10/05 08:54:14;;;;;;;7.22;4.38;;;;;;;15.64;63.27;100577.16;4953266;28;20205;-78
2023/10/05 08:56:45;;;;;;;6.10;4.80;;;;;;;15.78;62.92;100573.56;4953549;28;20367;-78
2023/10/05 08:59:13;;;;;;;9.38;5.43;;;;;;;15.95;62.22;100577.69;4949658;28;20308;-79
2023/10/05 09:01:42;;;;;;;7.60;5.47;;;;;;;16.20;61.53;100565.34;4948741;28;20686;-78
2023/10/05 09:04:12;;;;;;;5.25;4.72;;;;;;;16.29;60.77;100564.69;4954567;28;20356;-78
2023/10/05 09:06:59;;;;;;;8.30;5.28;;;;;;;16.50;60.23;100557.81;4952747;28;20449;-78
2023/10/05 09:09:38;;;;;;;7.57;5.55;;;;;;;16.77;59.56;100554.97;4954516;28;20192;-78
2023/10/05 09:12:46;;;;;;;4.88;4.38;;;;;;;17.13;58.46;100563.78;4958979;28;20600;-78
2023/10/05 09:17:58;;;;;;;6.85;4.50;;;;;;;17.92;56.35;100546.13;4949724;28;20193;-78
2023/10/05 09:20:32;;;;;;;5.70;4.70;;;;;;;18.11;55.83;100550.00;4950104;28;20225;-78
2023/10/05 09:23:05;;;;;;;7.70;3.55;;;;;;;18.14;55.19;100563.03;4948384;28;20498;-78
2023/10/05 09:25:33;;;;;;;5.40;4.57;;;;;;;18.09;55.69;100550.13;4953349;28;20219;-78
2023/10/05 09:28:07;;;;;;;10.03;5.60;;;;;;;18.07;55.48;100546.75;4949377;28;20462;-78
2023/10/05 09:30:34;;;;;;;5.67;4.20;;;;;;;17.99;56.07;100543.00;4953766;28;20879;-78
2023/10/05 09:33:10;;;;;;;4.20;3.67;;;;;;;17.96;55.98;100537.91;4955400;28;20479;-78
2023/10/05 09:35:36;;;;;;;4.43;3.00;;;;;;;17.90;56.16;100528.63;4948443;28;20736;-78
2023/10/05 09:38:08;;;;;;;4.93;3.20;;;;;;;17.75;55.76;100538.63;4951644;28;20506;-78
2023/10/05 09:40:34;;;;;;;4.50;3.33;;;;;;;17.55;56.41;100545.53;4952127;28;20236;-78
2023/10/05 09:43:00;;;;;;;4.27;3.60;;;;;;;17.48;56.87;100552.25;4952871;28;20492;-79
2023/10/05 09:45:29;;;;;;;5.23;3.53;;;;;;;17.47;56.74;100540.81;4952951;28;20231;-78
2023/10/05 09:48:00;;;;;;;4.83;3.10;;;;;;;17.44;56.79;100538.38;4951661;28;20498;-78
2023/10/05 09:50:27;;;;;;;4.20;3.77;;;;;;;17.43;56.71;100541.97;4949217;28;20464;-79
2023/10/05 09:52:53;;;;;;;4.90;3.03;;;;;;;17.47;56.85;100540.81;4952239;28;20948;-78
2023/10/05 09:55:19;;;;;;;4.77;2.63;;;;;;;17.60;56.59;100543.31;4954962;28;20461;-78
2023/10/05 09:57:47;;;;;;;5.43;3.67;;;;;;;17.68;56.18;100548.88;4958195;28;20789;-79
2023/10/05 10:00:30;;;;;;;7.20;3.90;;;;;;;17.77;56.10;100550.00;4951945;28;20725;-78
2023/10/05 10:03:03;;;;;;;9.80;5.03;;;;;;;18.02;55.75;100559.56;4956139;28;20451;-78
2023/10/05 10:05:38;;;;;;;4.77;4.00;;;;;;;18.19;55.21;100565.34;4951845;28;20506;-78
2023/10/05 10:08:10;;;;;;;4.50;3.27;;;;;;;18.28;54.70;100576.09;4951829;28;20489;-78
2023/10/05 10:10:43;;;;;;;4.10;2.97;;;;;;;18.31;54.63;100572.34;4949527;28;20474;-78
2023/10/05 10:13:14;;;;;;;5.97;3.20;;;;;;;18.43;54.53;100583.78;4948120;28;20449;-79
2023/10/05 10:15:40;;;;;;;4.50;3.10;;;;;;;18.60;54.18;100591.22;4953142;28;20479;-80
2023/10/05 10:18:14;;;;;;;5.03;3.20;;;;;;;18.70;54.00;100581.53;4956618;28;20783;-78
2023/10/05 10:20:47;;;;;;;5.10;3.93;;;;;;;18.83;53.96;100577.91;4953189;28;20203;-78
2023/10/05 10:23:35;;;;;;;6.23;4.33;;;;;;;18.97;53.94;100566.94;4951370;28;20492;-78
2023/10/05 10:26:16;;;;;;;4.67;3.03;;;;;;;18.95;53.71;100568.88;4951715;28;20657;-79
2023/10/05 10:28:58;;;;;;;5.80;3.27;;;;;;;19.05;53.71;100560.97;4948131;28;20519;-79
2023/10/05 10:31:30;;;;;;;4.33;3.33;;;;;;;19.25;53.49;100570.78;4956618;28;20961;-79
2023/10/05 10:34:08;;;;;;;8.60;3.50;;;;;;;19.41;52.92;100575.66;4951418;28;20918;-79
2023/10/05 10:36:57;;;;;;;4.33;2.40;;;;;;;19.57;52.25;100568.03;4955158;28;20837;-78
2023/10/05 10:39:29;;;;;;;2.90;2.23;;;;;;;19.67;51.96;100558.28;4937613;28;20467;-78
2023/10/05 10:42:07;;;;;;;6.80;3.13;;;;;;;19.72;51.61;100549.91;4955371;28;20472;-79
2023/10/05 10:47:16;;;;;;;4.27;2.40;;;;;;;19.86;50.95;100564.69;4948766;28;20597;-78
2023/10/05 10:50:22;;;;;;;2.93;2.63;;;;;;;19.89;50.59;100559.09;4957895;28;20455;-79
2023/10/05 10:52:51;;;;;;;5.93;2.50;;;;;;;19.88;50.05;100554.75;4952688;28;20787;-78
2023/10/05 10:55:20;;;;;;;4.90;2.10;;;;;;;19.95;49.88;100539.03;4952392;28;20474;-82
2023/10/05 10:57:54;;;;;;;3.13;1.90;;;;;;;20.01;49.26;100512.69;4953058;28;20512;-79
2023/10/05 11:03:17;;;;;;;2.67;1.90;;;;;;;19.98;48.14;100502.31;4949066;28;20456;-78
2023/10/05 11:05:51;;;;;;;2.50;1.57;;;;;;;19.78;48.34;100517.38;4955392;28;20964;-79
2023/10/05 11:08:20;;;;;;;4.90;2.17;;;;;;;19.66;48.72;100521.13;4951373;28;20448;-79
2023/10/05 11:11:09;;;;;;;3.37;3.07;;;;;;;19.65;49.10;100520.22;4947504;28;20468;-79
2023/10/05 11:13:40;;;;;;;2.60;1.93;;;;;;;19.71;49.31;100518.03;4952834;28;20487;-79
2023/10/05 11:16:09;;;;;;;3.13;2.10;;;;;;;19.73;49.58;100518.75;4955018;28;20456;-79
2023/10/05 11:18:39;;;;;;;3.33;1.87;;;;;;;19.75;49.70;100519.47;4951210;28;20450;-79
2023/10/05 11:21:19;;;;;;;4.70;1.67;;;;;;;19.65;49.84;100522.91;4955568;28;20467;-79
2023/10/05 11:23:55;;;;;;;4.27;2.70;;;;;;;19.66;49.86;100524.63;4954813;28;21012;-79
2023/10/05 11:27:05;;;;;;;2.47;2.03;;;;;;;19.69;49.72;100531.53;4950075;28;20472;-79
2023/10/05 11:29:29;;;;;;;4.50;2.87;;;;;;;19.72;49.64;100530.41;4947078;28;20526;-79
2023/10/05 11:32:12;;;;;;;2.80;2.07;;;;;;;19.77;49.60;100526.38;4960724;28;20460;-79
2023/10/05 11:34:39;;;;;;;3.07;1.97;;;;;;;19.84;49.66;100529.31;4951017;28;20473;-79
2023/10/05 11:37:18;;;;;;;4.17;1.93;;;;;;;19.88;49.72;100528.94;4955604;28;20975;-79
2023/10/05 11:39:59;;;;;;;3.53;2.07;;;;;;;19.82;49.58;100524.13;4952280;28;20518;-79
2023/10/05 11:42:25;;;;;;;2.80;2.50;;;;;;;19.77;49.22;100520.19;4950387;28;20477;-79
2023/10/05 11:45:00;;;;;;;4.47;3.20;;;;;;;19.73;49.07;100500.94;4960540;28;20465;-79
2023/10/05 11:47:35;;;;;;;2.90;1.80;;;;;;;19.73;48.85;100508.09;4950524;28;20204;-79
2023/10/05 11:50:08;;;;;;;2.27;1.97;;;;;;;19.69;48.56;100494.22;4950918;28;20540;-79
2023/10/05 11:52:38;;;;;;;2.70;1.60;;;;;;;19.72;48.47;100496.59;4956164;28;20461;-79
2023/10/05 11:55:07;;;;;;;4.13;3.20;;;;;;;19.66;48.17;100505.13;4949977;28;20497;-79
2023/10/05 11:57:33;;;;;;;2.67;2.47;;;;;;;19.64;48.53;100505.22;4949997;28;20465;-79
2023/10/05 11:59:59;;;;;;;2.40;1.70;;;;;;;19.59;47.82;100509.28;4949433;28;20999;-79
2023/10/05 12:02:26;;;;;;;2.90;2.10;;;;;;;19.48;47.90;100499.53;4952076;28;20253;-79
2023/10/05 12:04:52;;;;;;;7.23;2.60;;;;;;;19.43;47.77;100497.28;4950821;28;20597;-79
2023/10/05 12:07:17;;;;;;;2.53;1.60;;;;;;;19.31;47.87;100494.81;4959805;28;21053;-79
2023/10/05 12:09:45;;;;;;;3.67;1.70;;;;;;;19.37;48.05;100499.63;4959520;28;20478;-79
2023/10/05 12:12:13;;;;;;;2.43;1.53;;;;;;;19.39;47.64;100493.22;4959036;28;20205;-78
2023/10/05 12:14:41;;;;;;;3.90;2.10;;;;;;;19.44;47.57;100498.13;4952060;28;20563;-77
2023/10/05 12:17:06;;;;;;;5.80;2.57;;;;;;;19.53;47.32;100504.50;4959142;28;20463;-77
2023/10/05 12:19:33;;;;;;;3.20;2.00;;;;;;;19.66;47.63;100497.16;4953521;28;20504;-77
2023/10/05 12:22:01;;;;;;;4.90;1.97;;;;;;;19.78;47.39;100495.22;4951538;28;20205;-75